sensor_id;sensor_type;location;lat;lon;timestamp;temperature;humidity
32394;DHT22;18853;45.426;9.206;2022-10-16T00:01:42;23.40;53.90
32394;DHT22;18853;45.426;9.206;2022-10-16T00:04:08;23.40;53.90
32394;DHT22;18853;45.426;9.206;2022-10-16T00:06:34;23.40;53.80
32394;DHT22;18853;45.426;9.206;2022-10-16T00:09:00;23.40;54.00
32394;DHT22;18853;45.426;9.206;2022-10-16T00:11:31;23.40;54.10
32394;DHT22;18853;45.426;9.206;2022-10-16T00:14:03;23.40;54.00
32394;DHT22;18853;45.426;9.206;2022-10-16T00:16:29;23.30;54.10
32394;DHT22;18853;45.426;9.206;2022-10-16T00:18:56;23.30;54.10
32394;DHT22;18853;45.426;9.206;2022-10-16T00:21:24;23.30;53.90
32394;DHT22;18853;45.426;9.206;2022-10-16T00:23:55;23.30;54.10
32394;DHT22;18853;45.426;9.206;2022-10-16T00:26:21;23.30;54.10
32394;DHT22;18853;45.426;9.206;2022-10-16T00:28:48;23.30;54.20
32394;DHT22;18853;45.426;9.206;2022-10-16T00:31:14;23.30;54.80
32394;DHT22;18853;45.426;9.206;2022-10-16T00:33:40;23.30;54.10
32394;DHT22;18853;45.426;9.206;2022-10-16T00:36:09;23.30;54.20
32394;DHT22;18853;45.426;9.206;2022-10-16T00:38:35;23.30;54.20
32394;DHT22;18853;45.426;9.206;2022-10-16T00:41:03;23.30;54.20
32394;DHT22;18853;45.426;9.206;2022-10-16T00:46:08;23.30;54.20
32394;DHT22;18853;45.426;9.206;2022-10-16T00:48:35;23.30;54.20
32394;DHT22;18853;45.426;9.206;2022-10-16T00:51:01;23.20;54.60
32394;DHT22;18853;45.426;9.206;2022-10-16T00:53:27;23.10;54.40
32394;DHT22;18853;45.426;9.206;2022-10-16T00:55:53;23.20;54.30
32394;DHT22;18853;45.426;9.206;2022-10-16T00:58:20;23.20;54.30
32394;DHT22;18853;45.426;9.206;2022-10-16T01:00:46;23.20;54.20
32394;DHT22;18853;45.426;9.206;2022-10-16T01:03:27;23.20;54.30
32394;DHT22;18853;45.426;9.206;2022-10-16T01:09:11;23.20;54.40
32394;DHT22;18853;45.426;9.206;2022-10-16T01:11:24;23.00;54.30
32394;DHT22;18853;45.426;9.206;2022-10-16T01:14:00;23.10;54.60
32394;DHT22;18853;45.426;9.206;2022-10-16T01:16:39;23.20;54.60
32394;DHT22;18853;45.426;9.206;2022-10-16T01:19:14;23.20;55.10
32394;DHT22;18853;45.426;9.206;2022-10-16T01:21:44;23.20;54.50
32394;DHT22;18853;45.426;9.206;2022-10-16T01:24:17;23.10;54.30
32394;DHT22;18853;45.426;9.206;2022-10-16T01:29:27;23.10;54.30
32394;DHT22;18853;45.426;9.206;2022-10-16T01:32:00;23.10;54.40
32394;DHT22;18853;45.426;9.206;2022-10-16T01:34:38;23.20;54.50
32394;DHT22;18853;45.426;9.206;2022-10-16T01:37:14;23.10;54.40
32394;DHT22;18853;45.426;9.206;2022-10-16T01:39:42;23.10;54.50
32394;DHT22;18853;45.426;9.206;2022-10-16T01:42:34;23.10;54.50
32394;DHT22;18853;45.426;9.206;2022-10-16T01:45:02;23.10;54.10
32394;DHT22;18853;45.426;9.206;2022-10-16T01:47:32;23.00;54.30
32394;DHT22;18853;45.426;9.206;2022-10-16T01:49:59;23.00;54.30
32394;DHT22;18853;45.426;9.206;2022-10-16T01:52:29;23.00;54.20
32394;DHT22;18853;45.426;9.206;2022-10-16T01:54:57;23.10;54.40
32394;DHT22;18853;45.426;9.206;2022-10-16T01:57:24;23.10;54.40
32394;DHT22;18853;45.426;9.206;2022-10-16T01:59:54;23.00;54.30
32394;DHT22;18853;45.426;9.206;2022-10-16T02:02:22;23.10;54.40
32394;DHT22;18853;45.426;9.206;2022-10-16T02:05:14;23.00;54.30
32394;DHT22;18853;45.426;9.206;2022-10-16T02:07:41;23.10;54.40
32394;DHT22;18853;45.426;9.206;2022-10-16T02:10:08;23.00;54.50
32394;DHT22;18853;45.426;9.206;2022-10-16T02:12:37;23.00;54.50
32394;DHT22;18853;45.426;9.206;2022-10-16T02:15:05;23.00;54.40
32394;DHT22;18853;45.426;9.206;2022-10-16T02:17:31;23.00;54.50
32394;DHT22;18853;45.426;9.206;2022-10-16T02:19:58;23.00;54.60
32394;DHT22;18853;45.426;9.206;2022-10-16T02:22:27;23.00;54.70
32394;DHT22;18853;45.426;9.206;2022-10-16T02:24:59;22.90;54.60
32394;DHT22;18853;45.426;9.206;2022-10-16T02:32:44;23.00;54.80
32394;DHT22;18853;45.426;9.206;2022-10-16T02:35:10;22.90;54.80
32394;DHT22;18853;45.426;9.206;2022-10-16T02:37:38;22.90;54.70
32394;DHT22;18853;45.426;9.206;2022-10-16T02:40:07;22.90;54.70
32394;DHT22;18853;45.426;9.206;2022-10-16T02:42:35;22.90;54.80
32394;DHT22;18853;45.426;9.206;2022-10-16T02:45:02;22.90;54.80
32394;DHT22;18853;45.426;9.206;2022-10-16T02:47:27;22.90;54.90
32394;DHT22;18853;45.426;9.206;2022-10-16T02:49:53;22.90;54.90
32394;DHT22;18853;45.426;9.206;2022-10-16T02:52:19;22.80;54.80
32394;DHT22;18853;45.426;9.206;2022-10-16T02:54:44;22.90;54.90
32394;DHT22;18853;45.426;9.206;2022-10-16T02:57:10;22.80;54.80
32394;DHT22;18853;45.426;9.206;2022-10-16T02:59:35;22.80;54.80
32394;DHT22;18853;45.426;9.206;2022-10-16T03:02:01;22.80;54.90
32394;DHT22;18853;45.426;9.206;2022-10-16T03:04:27;22.80;54.90
32394;DHT22;18853;45.426;9.206;2022-10-16T03:09:27;22.90;55.00
32394;DHT22;18853;45.426;9.206;2022-10-16T03:11:53;22.80;55.00
32394;DHT22;18853;45.426;9.206;2022-10-16T03:14:18;22.80;55.00
32394;DHT22;18853;45.426;9.206;2022-10-16T03:16:44;22.80;55.10
32394;DHT22;18853;45.426;9.206;2022-10-16T03:19:10;22.80;55.30
32394;DHT22;18853;45.426;9.206;2022-10-16T03:21:35;22.70;55.10
32394;DHT22;18853;45.426;9.206;2022-10-16T03:24:01;22.80;55.30
32394;DHT22;18853;45.426;9.206;2022-10-16T03:26:26;22.80;55.30
32394;DHT22;18853;45.426;9.206;2022-10-16T03:28:52;22.70;55.20
32394;DHT22;18853;45.426;9.206;2022-10-16T03:31:18;22.70;55.20
32394;DHT22;18853;45.426;9.206;2022-10-16T03:33:43;22.80;55.30
32394;DHT22;18853;45.426;9.206;2022-10-16T03:36:09;22.80;55.30
32394;DHT22;18853;45.426;9.206;2022-10-16T03:38:35;22.80;55.30
32394;DHT22;18853;45.426;9.206;2022-10-16T03:41:00;22.80;55.30
32394;DHT22;18853;45.426;9.206;2022-10-16T03:43:26;22.70;55.20
32394;DHT22;18853;45.426;9.206;2022-10-16T03:45:52;22.70;55.20
32394;DHT22;18853;45.426;9.206;2022-10-16T03:48:18;22.70;55.30
32394;DHT22;18853;45.426;9.206;2022-10-16T03:50:44;22.70;55.30
32394;DHT22;18853;45.426;9.206;2022-10-16T03:53:10;22.70;55.30
32394;DHT22;18853;45.426;9.206;2022-10-16T03:55:35;22.70;55.20
32394;DHT22;18853;45.426;9.206;2022-10-16T03:58:01;22.80;55.30
32394;DHT22;18853;45.426;9.206;2022-10-16T04:00:28;22.80;55.40
32394;DHT22;18853;45.426;9.206;2022-10-16T04:02:54;22.70;55.40
32394;DHT22;18853;45.426;9.206;2022-10-16T04:05:19;22.70;55.30
32394;DHT22;18853;45.426;9.206;2022-10-16T04:07:45;22.70;55.20
32394;DHT22;18853;45.426;9.206;2022-10-16T04:10:11;22.70;55.20
32394;DHT22;18853;45.426;9.206;2022-10-16T04:12:36;22.70;55.20
32394;DHT22;18853;45.426;9.206;2022-10-16T04:15:02;22.70;55.20
32394;DHT22;18853;45.426;9.206;2022-10-16T04:17:28;22.70;55.30
32394;DHT22;18853;45.426;9.206;2022-10-16T04:19:53;22.70;55.20
32394;DHT22;18853;45.426;9.206;2022-10-16T04:22:19;22.70;55.20
32394;DHT22;18853;45.426;9.206;2022-10-16T04:24:45;22.70;55.20
32394;DHT22;18853;45.426;9.206;2022-10-16T04:27:10;22.70;55.30
32394;DHT22;18853;45.426;9.206;2022-10-16T04:29:36;22.70;55.50
32394;DHT22;18853;45.426;9.206;2022-10-16T04:32:02;22.70;55.40
32394;DHT22;18853;45.426;9.206;2022-10-16T04:34:27;22.70;55.30
32394;DHT22;18853;45.426;9.206;2022-10-16T04:36:56;22.70;55.30
32394;DHT22;18853;45.426;9.206;2022-10-16T04:39:22;22.70;55.40
32394;DHT22;18853;45.426;9.206;2022-10-16T04:41:47;22.70;55.50
32394;DHT22;18853;45.426;9.206;2022-10-16T04:44:13;22.70;55.50
32394;DHT22;18853;45.426;9.206;2022-10-16T04:46:38;22.70;55.50
32394;DHT22;18853;45.426;9.206;2022-10-16T04:49:04;22.70;55.50
32394;DHT22;18853;45.426;9.206;2022-10-16T04:51:30;22.70;55.60
32394;DHT22;18853;45.426;9.206;2022-10-16T04:53:56;22.70;55.60
32394;DHT22;18853;45.426;9.206;2022-10-16T04:56:22;22.70;55.60
32394;DHT22;18853;45.426;9.206;2022-10-16T04:58:48;22.70;55.60
32394;DHT22;18853;45.426;9.206;2022-10-16T05:01:14;22.70;55.60
32394;DHT22;18853;45.426;9.206;2022-10-16T05:03:39;22.70;55.60
32394;DHT22;18853;45.426;9.206;2022-10-16T05:06:08;22.60;55.60
32394;DHT22;18853;45.426;9.206;2022-10-16T05:08:33;22.60;55.60
32394;DHT22;18853;45.426;9.206;2022-10-16T05:10:59;22.60;55.60
32394;DHT22;18853;45.426;9.206;2022-10-16T05:13:25;22.60;55.60
32394;DHT22;18853;45.426;9.206;2022-10-16T05:15:51;22.60;55.70
32394;DHT22;18853;45.426;9.206;2022-10-16T05:18:17;22.60;55.80
32394;DHT22;18853;45.426;9.206;2022-10-16T05:20:42;22.60;55.90
32394;DHT22;18853;45.426;9.206;2022-10-16T05:23:08;22.60;55.90
32394;DHT22;18853;45.426;9.206;2022-10-16T05:25:36;22.60;55.90
32394;DHT22;18853;45.426;9.206;2022-10-16T05:28:01;22.60;55.90
32394;DHT22;18853;45.426;9.206;2022-10-16T05:30:27;22.60;55.90
32394;DHT22;18853;45.426;9.206;2022-10-16T05:32:53;22.60;56.00
32394;DHT22;18853;45.426;9.206;2022-10-16T05:35:19;22.60;56.00
32394;DHT22;18853;45.426;9.206;2022-10-16T05:37:45;22.60;56.00
32394;DHT22;18853;45.426;9.206;2022-10-16T05:40:11;22.50;56.10
32394;DHT22;18853;45.426;9.206;2022-10-16T05:42:38;22.50;56.10
32394;DHT22;18853;45.426;9.206;2022-10-16T05:45:05;22.50;56.20
32394;DHT22;18853;45.426;9.206;2022-10-16T05:47:31;22.50;56.10
32394;DHT22;18853;45.426;9.206;2022-10-16T05:49:57;22.50;56.30
32394;DHT22;18853;45.426;9.206;2022-10-16T05:52:23;22.50;56.30
32394;DHT22;18853;45.426;9.206;2022-10-16T05:54:48;22.50;56.40
32394;DHT22;18853;45.426;9.206;2022-10-16T05:57:15;22.50;56.40
32394;DHT22;18853;45.426;9.206;2022-10-16T05:59:40;22.50;56.50
32394;DHT22;18853;45.426;9.206;2022-10-16T06:02:07;22.50;56.60
32394;DHT22;18853;45.426;9.206;2022-10-16T06:04:34;22.50;56.70
32394;DHT22;18853;45.426;9.206;2022-10-16T06:06:59;22.50;56.80
32394;DHT22;18853;45.426;9.206;2022-10-16T06:09:28;22.50;56.80
32394;DHT22;18853;45.426;9.206;2022-10-16T06:11:54;22.50;56.90
32394;DHT22;18853;45.426;9.206;2022-10-16T06:14:19;22.50;56.90
32394;DHT22;18853;45.426;9.206;2022-10-16T06:16:45;22.50;56.90
32394;DHT22;18853;45.426;9.206;2022-10-16T06:19:10;22.50;56.90
32394;DHT22;18853;45.426;9.206;2022-10-16T06:21:36;22.50;56.90
32394;DHT22;18853;45.426;9.206;2022-10-16T06:24:02;22.50;57.00
32394;DHT22;18853;45.426;9.206;2022-10-16T06:26:29;22.50;56.90
32394;DHT22;18853;45.426;9.206;2022-10-16T06:28:57;22.50;56.90
32394;DHT22;18853;45.426;9.206;2022-10-16T06:31:24;22.50;56.90
32394;DHT22;18853;45.426;9.206;2022-10-16T06:33:53;22.50;57.00
32394;DHT22;18853;45.426;9.206;2022-10-16T06:36:19;22.50;56.90
32394;DHT22;18853;45.426;9.206;2022-10-16T06:38:46;22.50;57.00
32394;DHT22;18853;45.426;9.206;2022-10-16T06:41:13;22.50;57.10
32394;DHT22;18853;45.426;9.206;2022-10-16T06:43:39;22.50;57.20
32394;DHT22;18853;45.426;9.206;2022-10-16T06:46:07;22.50;57.20
32394;DHT22;18853;45.426;9.206;2022-10-16T06:48:36;22.50;57.20
32394;DHT22;18853;45.426;9.206;2022-10-16T06:51:13;22.50;57.30
32394;DHT22;18853;45.426;9.206;2022-10-16T06:53:41;22.60;57.20
32394;DHT22;18853;45.426;9.206;2022-10-16T06:56:12;22.50;57.20
32394;DHT22;18853;45.426;9.206;2022-10-16T06:58:38;22.50;57.30
32394;DHT22;18853;45.426;9.206;2022-10-16T07:01:04;22.50;57.30
32394;DHT22;18853;45.426;9.206;2022-10-16T07:03:30;22.50;57.20
32394;DHT22;18853;45.426;9.206;2022-10-16T07:05:56;22.50;57.30
32394;DHT22;18853;45.426;9.206;2022-10-16T07:08:22;22.50;57.30
32394;DHT22;18853;45.426;9.206;2022-10-16T07:10:48;22.50;57.50
32394;DHT22;18853;45.426;9.206;2022-10-16T07:13:13;22.50;57.60
32394;DHT22;18853;45.426;9.206;2022-10-16T07:15:40;22.50;57.50
32394;DHT22;18853;45.426;9.206;2022-10-16T07:18:06;22.50;57.60
32394;DHT22;18853;45.426;9.206;2022-10-16T07:20:33;22.50;57.60
32394;DHT22;18853;45.426;9.206;2022-10-16T07:22:58;22.50;57.60
32394;DHT22;18853;45.426;9.206;2022-10-16T07:25:24;22.50;57.70
32394;DHT22;18853;45.426;9.206;2022-10-16T07:27:50;22.50;57.60
32394;DHT22;18853;45.426;9.206;2022-10-16T07:30:15;22.50;57.60
32394;DHT22;18853;45.426;9.206;2022-10-16T07:32:41;22.50;58.30
32394;DHT22;18853;45.426;9.206;2022-10-16T07:35:07;22.50;57.80
32394;DHT22;18853;45.426;9.206;2022-10-16T07:37:33;22.50;57.70
32394;DHT22;18853;45.426;9.206;2022-10-16T07:39:58;22.50;57.60
32394;DHT22;18853;45.426;9.206;2022-10-16T07:42:24;22.50;57.60
32394;DHT22;18853;45.426;9.206;2022-10-16T07:44:49;22.50;57.70
32394;DHT22;18853;45.426;9.206;2022-10-16T07:47:15;22.50;57.60
32394;DHT22;18853;45.426;9.206;2022-10-16T07:49:41;22.50;57.70
32394;DHT22;18853;45.426;9.206;2022-10-16T07:52:07;22.50;57.80
32394;DHT22;18853;45.426;9.206;2022-10-16T07:54:32;22.50;57.80
32394;DHT22;18853;45.426;9.206;2022-10-16T07:56:58;22.60;58.50
32394;DHT22;18853;45.426;9.206;2022-10-16T07:59:23;22.60;58.40
32394;DHT22;18853;45.426;9.206;2022-10-16T08:01:49;22.70;58.00
32394;DHT22;18853;45.426;9.206;2022-10-16T08:04:15;22.70;58.50
32394;DHT22;18853;45.426;9.206;2022-10-16T08:06:41;22.80;58.90
32394;DHT22;18853;45.426;9.206;2022-10-16T08:09:07;22.90;57.50
32394;DHT22;18853;45.426;9.206;2022-10-16T08:11:33;22.90;57.00
32394;DHT22;18853;45.426;9.206;2022-10-16T08:13:59;22.80;57.10
32394;DHT22;18853;45.426;9.206;2022-10-16T08:16:24;22.90;57.20
32394;DHT22;18853;45.426;9.206;2022-10-16T08:18:50;22.80;57.30
32394;DHT22;18853;45.426;9.206;2022-10-16T08:21:18;22.80;57.60
32394;DHT22;18853;45.426;9.206;2022-10-16T08:23:44;22.80;57.70
32394;DHT22;18853;45.426;9.206;2022-10-16T08:26:11;22.80;57.70
32394;DHT22;18853;45.426;9.206;2022-10-16T08:28:37;22.80;57.60
32394;DHT22;18853;45.426;9.206;2022-10-16T08:31:12;22.80;57.20
32394;DHT22;18853;45.426;9.206;2022-10-16T08:33:40;22.80;57.70
32394;DHT22;18853;45.426;9.206;2022-10-16T08:36:06;22.80;57.60
32394;DHT22;18853;45.426;9.206;2022-10-16T08:38:33;22.90;57.80
32394;DHT22;18853;45.426;9.206;2022-10-16T08:41:25;22.90;57.90
32394;DHT22;18853;45.426;9.206;2022-10-16T08:46:42;23.10;57.40
32394;DHT22;18853;45.426;9.206;2022-10-16T08:49:12;23.10;57.50
32394;DHT22;18853;45.426;9.206;2022-10-16T08:51:42;23.10;57.50
32394;DHT22;18853;45.426;9.206;2022-10-16T08:54:15;23.20;57.30
32394;DHT22;18853;45.426;9.206;2022-10-16T08:56:46;23.30;57.40
32394;DHT22;18853;45.426;9.206;2022-10-16T08:59:14;23.30;57.20
32394;DHT22;18853;45.426;9.206;2022-10-16T09:01:45;23.30;56.90
32394;DHT22;18853;45.426;9.206;2022-10-16T09:06:59;23.40;56.70
32394;DHT22;18853;45.426;9.206;2022-10-16T09:12:11;23.50;56.70
32394;DHT22;18853;45.426;9.206;2022-10-16T09:20:30;23.50;55.90
32394;DHT22;18853;45.426;9.206;2022-10-16T09:23:27;23.50;56.50
32394;DHT22;18853;45.426;9.206;2022-10-16T09:25:53;23.50;56.70
32394;DHT22;18853;45.426;9.206;2022-10-16T09:28:19;23.50;56.60
32394;DHT22;18853;45.426;9.206;2022-10-16T09:30:46;23.60;56.60
32394;DHT22;18853;45.426;9.206;2022-10-16T09:33:14;23.60;56.60
32394;DHT22;18853;45.426;9.206;2022-10-16T09:35:45;23.60;56.40
32394;DHT22;18853;45.426;9.206;2022-10-16T09:38:41;23.80;56.50
32394;DHT22;18853;45.426;9.206;2022-10-16T09:41:14;23.80;56.20
32394;DHT22;18853;45.426;9.206;2022-10-16T09:43:47;23.70;55.30
32394;DHT22;18853;45.426;9.206;2022-10-16T09:46:28;23.70;55.20
32394;DHT22;18853;45.426;9.206;2022-10-16T09:49:05;23.70;54.50
32394;DHT22;18853;45.426;9.206;2022-10-16T09:51:44;23.70;55.00
32394;DHT22;18853;45.426;9.206;2022-10-16T09:54:14;23.70;55.70
32394;DHT22;18853;45.426;9.206;2022-10-16T09:56:40;23.70;55.70
32394;DHT22;18853;45.426;9.206;2022-10-16T09:59:12;23.80;55.70
32394;DHT22;18853;45.426;9.206;2022-10-16T10:02:26;23.80;55.70
32394;DHT22;18853;45.426;9.206;2022-10-16T10:04:39;23.80;55.60
32394;DHT22;18853;45.426;9.206;2022-10-16T10:07:07;23.80;55.60
32394;DHT22;18853;45.426;9.206;2022-10-16T10:09:44;23.90;55.50
32394;DHT22;18853;45.426;9.206;2022-10-16T10:14:55;24.00;55.40
32394;DHT22;18853;45.426;9.206;2022-10-16T10:17:26;24.00;55.50
32394;DHT22;18853;45.426;9.206;2022-10-16T10:19:57;24.00;54.60
32394;DHT22;18853;45.426;9.206;2022-10-16T10:25:20;24.10;54.80
32394;DHT22;18853;45.426;9.206;2022-10-16T10:30:35;24.00;55.00
32394;DHT22;18853;45.426;9.206;2022-10-16T10:33:15;24.10;54.30
32394;DHT22;18853;45.426;9.206;2022-10-16T10:46:35;24.20;54.20
32394;DHT22;18853;45.426;9.206;2022-10-16T10:49:22;24.30;54.10
32394;DHT22;18853;45.426;9.206;2022-10-16T10:54:50;24.30;52.80
32394;DHT22;18853;45.426;9.206;2022-10-16T11:00:23;24.50;53.50
32394;DHT22;18853;45.426;9.206;2022-10-16T11:05:44;24.60;53.20
32394;DHT22;18853;45.426;9.206;2022-10-16T11:08:26;24.60;53.10
32394;DHT22;18853;45.426;9.206;2022-10-16T11:10:58;24.70;52.60
32394;DHT22;18853;45.426;9.206;2022-10-16T11:16:03;24.80;52.80
32394;DHT22;18853;45.426;9.206;2022-10-16T11:21:14;24.90;51.30
32394;DHT22;18853;45.426;9.206;2022-10-16T11:23:53;24.90;51.10
32394;DHT22;18853;45.426;9.206;2022-10-16T11:26:35;25.00;51.30
32394;DHT22;18853;45.426;9.206;2022-10-16T11:29:10;25.00;51.30
32394;DHT22;18853;45.426;9.206;2022-10-16T11:31:48;25.00;51.30
32394;DHT22;18853;45.426;9.206;2022-10-16T11:34:31;25.00;50.60
32394;DHT22;18853;45.426;9.206;2022-10-16T11:39:29;25.10;50.60
32394;DHT22;18853;45.426;9.206;2022-10-16T11:42:19;25.10;51.10
32394;DHT22;18853;45.426;9.206;2022-10-16T11:45:00;25.10;50.40
32394;DHT22;18853;45.426;9.206;2022-10-16T11:47:39;25.10;50.30
32394;DHT22;18853;45.426;9.206;2022-10-16T11:53:11;25.10;50.90
32394;DHT22;18853;45.426;9.206;2022-10-16T11:55:41;25.20;51.40
32394;DHT22;18853;45.426;9.206;2022-10-16T12:03:25;25.40;49.50
32394;DHT22;18853;45.426;9.206;2022-10-16T12:06:57;25.50;49.80
32394;DHT22;18853;45.426;9.206;2022-10-16T12:08:52;25.40;49.80
32394;DHT22;18853;45.426;9.206;2022-10-16T12:11:36;25.40;49.20
32394;DHT22;18853;45.426;9.206;2022-10-16T12:16:59;25.60;50.00
32394;DHT22;18853;45.426;9.206;2022-10-16T12:19:28;25.60;49.20
32394;DHT22;18853;45.426;9.206;2022-10-16T12:21:56;25.60;50.00
32394;DHT22;18853;45.426;9.206;2022-10-16T12:24:42;25.70;50.30
32394;DHT22;18853;45.426;9.206;2022-10-16T12:30:04;25.80;50.00
32394;DHT22;18853;45.426;9.206;2022-10-16T12:32:36;25.80;48.70
32394;DHT22;18853;45.426;9.206;2022-10-16T12:35:05;26.00;48.50
32394;DHT22;18853;45.426;9.206;2022-10-16T12:37:36;26.00;48.50
32394;DHT22;18853;45.426;9.206;2022-10-16T12:40:36;26.10;48.30
32394;DHT22;18853;45.426;9.206;2022-10-16T12:43:25;26.20;47.60
32394;DHT22;18853;45.426;9.206;2022-10-16T12:48:30;26.30;47.30
32394;DHT22;18853;45.426;9.206;2022-10-16T12:50:56;26.30;48.10
32394;DHT22;18853;45.426;9.206;2022-10-16T12:53:26;26.40;49.10
32394;DHT22;18853;45.426;9.206;2022-10-16T12:56:12;26.60;48.70
32394;DHT22;18853;45.426;9.206;2022-10-16T13:07:43;27.10;46.90
32394;DHT22;18853;45.426;9.206;2022-10-16T13:13:05;27.30;47.10
32394;DHT22;18853;45.426;9.206;2022-10-16T13:24:22;27.50;45.80
32394;DHT22;18853;45.426;9.206;2022-10-16T13:27:06;27.60;46.00
32394;DHT22;18853;45.426;9.206;2022-10-16T13:29:33;27.70;47.00
32394;DHT22;18853;45.426;9.206;2022-10-16T13:32:01;27.80;47.20
32394;DHT22;18853;45.426;9.206;2022-10-16T13:34:32;27.80;45.10
32394;DHT22;18853;45.426;9.206;2022-10-16T13:36:58;27.80;46.10
32394;DHT22;18853;45.426;9.206;2022-10-16T13:39:32;27.90;46.70
32394;DHT22;18853;45.426;9.206;2022-10-16T13:44:49;28.00;46.40
32394;DHT22;18853;45.426;9.206;2022-10-16T13:49:45;28.20;45.90
32394;DHT22;18853;45.426;9.206;2022-10-16T13:52:21;28.20;45.40
32394;DHT22;18853;45.426;9.206;2022-10-16T13:54:47;28.20;45.00
32394;DHT22;18853;45.426;9.206;2022-10-16T13:57:14;28.20;45.00
32394;DHT22;18853;45.426;9.206;2022-10-16T13:59:40;28.10;45.00
32394;DHT22;18853;45.426;9.206;2022-10-16T14:02:25;28.10;44.90
32394;DHT22;18853;45.426;9.206;2022-10-16T14:04:53;28.10;44.30
32394;DHT22;18853;45.426;9.206;2022-10-16T14:07:31;27.90;44.30
32394;DHT22;18853;45.426;9.206;2022-10-16T14:10:05;27.80;44.00
32394;DHT22;18853;45.426;9.206;2022-10-16T14:12:32;27.70;44.00
32394;DHT22;18853;45.426;9.206;2022-10-16T14:14:59;27.60;44.90
32394;DHT22;18853;45.426;9.206;2022-10-16T14:17:32;27.50;44.20
32394;DHT22;18853;45.426;9.206;2022-10-16T14:20:03;27.40;45.10
32394;DHT22;18853;45.426;9.206;2022-10-16T14:22:41;27.40;45.00
32394;DHT22;18853;45.426;9.206;2022-10-16T14:27:45;27.50;45.80
32394;DHT22;18853;45.426;9.206;2022-10-16T14:30:21;27.50;45.80
32394;DHT22;18853;45.426;9.206;2022-10-16T14:33:24;27.60;45.70
32394;DHT22;18853;45.426;9.206;2022-10-16T14:38:31;27.60;46.10
32394;DHT22;18853;45.426;9.206;2022-10-16T14:40:58;27.50;46.30
32394;DHT22;18853;45.426;9.206;2022-10-16T14:43:38;27.60;45.40
32394;DHT22;18853;45.426;9.206;2022-10-16T14:46:13;27.60;45.10
32394;DHT22;18853;45.426;9.206;2022-10-16T14:48:45;27.70;45.10
32394;DHT22;18853;45.426;9.206;2022-10-16T14:51:18;27.70;44.30
32394;DHT22;18853;45.426;9.206;2022-10-16T14:53:44;27.80;43.90
32394;DHT22;18853;45.426;9.206;2022-10-16T14:56:21;27.90;44.00
32394;DHT22;18853;45.426;9.206;2022-10-16T14:58:49;27.90;44.20
32394;DHT22;18853;45.426;9.206;2022-10-16T15:01:15;27.90;44.70
32394;DHT22;18853;45.426;9.206;2022-10-16T15:03:40;27.90;44.90
32394;DHT22;18853;45.426;9.206;2022-10-16T15:06:14;27.90;44.00
32394;DHT22;18853;45.426;9.206;2022-10-16T15:08:41;27.90;45.50
32394;DHT22;18853;45.426;9.206;2022-10-16T15:11:15;27.90;45.90
32394;DHT22;18853;45.426;9.206;2022-10-16T15:13:41;27.90;45.10
32394;DHT22;18853;45.426;9.206;2022-10-16T15:16:16;27.90;45.20
32394;DHT22;18853;45.426;9.206;2022-10-16T15:18:42;28.00;43.60
32394;DHT22;18853;45.426;9.206;2022-10-16T15:21:21;28.00;45.30
32394;DHT22;18853;45.426;9.206;2022-10-16T15:23:48;28.00;44.50
32394;DHT22;18853;45.426;9.206;2022-10-16T15:26:15;28.00;45.90
32394;DHT22;18853;45.426;9.206;2022-10-16T15:28:40;28.00;45.70
32394;DHT22;18853;45.426;9.206;2022-10-16T15:31:06;28.00;45.60
32394;DHT22;18853;45.426;9.206;2022-10-16T15:33:32;28.00;45.40
32394;DHT22;18853;45.426;9.206;2022-10-16T15:36:00;28.00;44.20
32394;DHT22;18853;45.426;9.206;2022-10-16T15:38:28;27.90;45.20
32394;DHT22;18853;45.426;9.206;2022-10-16T15:40:54;27.80;45.60
32394;DHT22;18853;45.426;9.206;2022-10-16T15:43:19;27.80;46.60
32394;DHT22;18853;45.426;9.206;2022-10-16T15:46:02;27.70;46.80
32394;DHT22;18853;45.426;9.206;2022-10-16T15:48:29;27.60;47.30
32394;DHT22;18853;45.426;9.206;2022-10-16T15:50:55;27.50;47.60
32394;DHT22;18853;45.426;9.206;2022-10-16T15:53:21;27.50;47.40
32394;DHT22;18853;45.426;9.206;2022-10-16T15:55:46;27.40;47.60
32394;DHT22;18853;45.426;9.206;2022-10-16T15:58:12;27.30;48.00
32394;DHT22;18853;45.426;9.206;2022-10-16T16:00:37;27.30;47.90
32394;DHT22;18853;45.426;9.206;2022-10-16T16:03:04;27.20;48.00
32394;DHT22;18853;45.426;9.206;2022-10-16T16:05:29;27.10;48.50
32394;DHT22;18853;45.426;9.206;2022-10-16T16:07:55;27.10;48.50
32394;DHT22;18853;45.426;9.206;2022-10-16T16:10:21;27.00;48.70
32394;DHT22;18853;45.426;9.206;2022-10-16T16:12:48;26.90;48.60
32394;DHT22;18853;45.426;9.206;2022-10-16T16:15:20;26.90;48.90
32394;DHT22;18853;45.426;9.206;2022-10-16T16:17:46;26.80;48.80
32394;DHT22;18853;45.426;9.206;2022-10-16T16:20:12;26.70;48.90
32394;DHT22;18853;45.426;9.206;2022-10-16T16:22:38;26.70;48.80
32394;DHT22;18853;45.426;9.206;2022-10-16T16:25:04;26.70;48.70
32394;DHT22;18853;45.426;9.206;2022-10-16T16:27:29;26.60;48.70
32394;DHT22;18853;45.426;9.206;2022-10-16T16:29:59;26.60;49.10
32394;DHT22;18853;45.426;9.206;2022-10-16T16:32:24;26.50;48.90
32394;DHT22;18853;45.426;9.206;2022-10-16T16:34:50;26.40;48.80
32394;DHT22;18853;45.426;9.206;2022-10-16T16:37:16;26.40;48.80
32394;DHT22;18853;45.426;9.206;2022-10-16T16:39:41;26.30;49.00
32394;DHT22;18853;45.426;9.206;2022-10-16T16:42:07;26.30;49.80
32394;DHT22;18853;45.426;9.206;2022-10-16T16:44:33;26.30;49.30
32394;DHT22;18853;45.426;9.206;2022-10-16T16:47:02;26.20;49.20
32394;DHT22;18853;45.426;9.206;2022-10-16T16:49:28;26.10;49.20
32394;DHT22;18853;45.426;9.206;2022-10-16T16:51:54;26.10;49.40
32394;DHT22;18853;45.426;9.206;2022-10-16T16:54:20;26.10;49.30
32394;DHT22;18853;45.426;9.206;2022-10-16T16:56:46;26.00;49.20
32394;DHT22;18853;45.426;9.206;2022-10-16T16:59:13;26.00;49.20
32394;DHT22;18853;45.426;9.206;2022-10-16T17:01:40;26.00;49.20
32394;DHT22;18853;45.426;9.206;2022-10-16T17:04:06;25.90;49.30
32394;DHT22;18853;45.426;9.206;2022-10-16T17:06:32;25.90;49.50
32394;DHT22;18853;45.426;9.206;2022-10-16T17:09:00;25.90;49.60
32394;DHT22;18853;45.426;9.206;2022-10-16T17:11:27;25.90;49.80
32394;DHT22;18853;45.426;9.206;2022-10-16T17:13:57;25.80;49.70
32394;DHT22;18853;45.426;9.206;2022-10-16T17:16:25;25.80;49.70
32394;DHT22;18853;45.426;9.206;2022-10-16T17:18:51;25.80;49.70
32394;DHT22;18853;45.426;9.206;2022-10-16T17:21:18;25.70;49.70
32394;DHT22;18853;45.426;9.206;2022-10-16T17:23:44;25.70;49.80
32394;DHT22;18853;45.426;9.206;2022-10-16T17:26:15;25.70;50.00
32394;DHT22;18853;45.426;9.206;2022-10-16T17:28:42;25.70;50.00
32394;DHT22;18853;45.426;9.206;2022-10-16T17:31:20;25.60;50.10
32394;DHT22;18853;45.426;9.206;2022-10-16T17:33:46;25.60;50.10
32394;DHT22;18853;45.426;9.206;2022-10-16T17:36:12;25.50;50.20